Pagina principale
METAR-TAF:

METAR-TAF

Aeroporti :

Caen, Francia

latitudine: 49-11N, longitudine: 000-27W, altezza: 78 m

Osservazione

Il bollettino è stato emesso 34 minuti fa, alle 22:30 UTC
Vento 3 kt da ovest
Temperature 11°C
Umidità 94%
Pressione 1020 hPa
Visibilità 10 km o più
nessuna nube inferiore a 1500 m e nessun cumulonembo

METAR: LFRK 162230Z AUTO 28003KT CAVOK 11/10 Q1020 NOSIG

Ora: 01:04 (23:04 UTC)

Previsione

Il bollettino è stato emesso 9 ore e 4 minuti fa, alle 14:00 UTC
Previsione valida dal 16 alle 15 UTC al 16 alle 24 UTC
Vento 8 kt da sud/sud-ovest
Visibilità 10 km o più
Nubi sparse ad un'altezza di 3500 ft
Probabilità 40% :
Temporaneamente
dal 16 alle 15 UTC al 16 alle 18 UTC
Visibilità: 4000 m
rovesci di pioggia
Evoluzione graduale
dal 16 alle 18 UTC al 16 alle 20 UTC
Vento 3 kt da direzioni variabili

TAF: LFRK 161400Z 1615/1624 20008KT 9999 SCT035 PROB40 TEMPO 1615/1618 4000 SHRA BECMG 1618/1620 VRB03KT

Osservazioni e previsioni meteorologiche di più di 4000 aeroporti (messaggi METAR e TAF).

Le stazioni disponibili sono rappresentate dai dischi gialli e rossi sulla carta.

Puntare il mouse per vedere il nome della stazione.

Clicca sopra per visualizzare le osservazioni e previsioni meteorologiche.

Per cambiare la mappa : fare clic sui pulsanti verdi con una croce nera per ingrandire, il pulsante verde con un trattino per diminuire, o sulla freccia verde per le mappe adiacenti.


METAR-TAF: